Weather History for Hazlehurst, GA

Change the Weather History Date:

Saturday, January 12, 2013

  Actual Average Record
Temperature  
Mean Temperature 66 °F -  
Max Temperature 77 °F 68 °F 77 °F (2013)
Min Temperature 55 °F 33 °F 39 °F (2014)
Cooling Degree Days 1    
Growing Degree Days 16 (Base 50)    
Moisture  
Dew Point 59 °F    
Average Humidity 85    
Maximum Humidity 100    
Minimum Humidity 57    
Precipitation  
Precipitation 0.00 in - - ()
Sea Level Pressure  
Sea Level Pressure 30.15 in    
Wind  
Wind Speed 2 mph (South)    
Max Wind Speed 8 mph    
Max Gust Speed -    
Visibility 8 miles    
Events      
Averages and records for this station are not official NWS values.
T = Trace of Precipitation, MM = Missing Value Source: NWS Daily Summary

Daily Weather History Graph

Daily Weather History Graph

Search for Another Location

Airport:

Trip Planner

Search our weather history database for the weather conditions in past years. The results will help you decide how hot, cold, wet, or windy it might be!

Date:

Astronomy

Jan. 12, 2013 Rise Set
Actual Time 7:31 AM EST 5:46 PM EST
Civil Twilight 7:05 AM EST 6:13 PM EST
Nautical Twilight 6:34 AM EST 6:43 PM EST
Astronomical Twilight 6:05 AM EST 7:12 PM EST
Moon 7:55 AM EST (1/12) 7:06 PM EST (1/12)
Length of Visible Light 11h 08m
Length of Day
10h 15m
New Moon, 1% of the Moon is Illuminated
Jan 12
New Moon
Jan 18
First Quarter
Jan 26
Full
Feb 3
Last Quarter
Feb 10
New

Hourly Weather History & Observations

Time (EST) Temp. Dew Point Humidity Pressure Visibility Wind Dir Wind Speed Gust Speed Precip Events Conditions
12:15 AM 58.3 °F 58.5 °F 100% 30.19 in 7.0 mi Calm Calm - N/A   Clear
12:35 AM 57.6 °F 57.7 °F 100% 30.18 in 7.0 mi Calm Calm - N/A   Clear
12:55 AM 57.2 °F 57.2 °F 100% 30.18 in 5.0 mi Calm Calm - N/A   Clear
1:15 AM 57.2 °F 57.2 °F 100% 30.18 in 7.0 mi Calm Calm - N/A   Clear
1:35 AM 56.7 °F 56.8 °F 100% 30.18 in 3.0 mi Calm Calm - N/A   Clear
1:55 AM 56.3 °F 56.3 °F 100% 30.17 in 5.0 mi Calm Calm - N/A   Clear
2:15 AM - - N/A% 30.18 in 2.5 mi Calm Calm - N/A   Clear
2:35 AM 56.3 °F 56.3 °F 100% 30.18 in 2.5 mi SSE 3.5 mph - N/A   Clear
2:55 AM 56.7 °F 56.8 °F 100% 30.18 in 7.0 mi SSE 3.5 mph - N/A   Clear
3:15 AM 57.7 °F 57.9 °F 100% 30.18 in 7.0 mi SSE 3.5 mph - N/A   Clear
3:35 AM 57.7 °F 57.7 °F 100% 30.17 in 7.0 mi Calm Calm - N/A   Clear
3:55 AM 57.2 °F 57.2 °F 100% 30.17 in 3.0 mi Calm Calm - N/A   Clear
4:15 AM 57.2 °F 57.4 °F 100% 30.17 in 4.0 mi Calm Calm - N/A   Clear
4:35 AM 57.4 °F 57.6 °F 100% 30.17 in 7.0 mi SSE 3.5 mph - N/A   Clear
4:55 AM 57.0 °F 57.0 °F 100% 30.16 in 7.0 mi Calm Calm - N/A   Clear
5:15 AM 56.7 °F 56.8 °F 100% 30.16 in 5.0 mi Calm Calm - N/A   Clear
5:35 AM 56.3 °F 56.7 °F 100% 30.16 in 7.0 mi Calm Calm - N/A   Clear
5:55 AM 55.8 °F 55.9 °F 100% 30.17 in 5.0 mi Calm Calm - N/A   Clear
6:15 AM 56.3 °F 56.5 °F 100% 30.17 in 5.0 mi South 3.5 mph - N/A   Clear
6:35 AM 56.1 °F 56.1 °F 100% 30.17 in 4.0 mi Calm Calm - N/A   Clear
6:55 AM 55.8 °F 55.9 °F 100% 30.18 in 7.0 mi South 3.5 mph - N/A   Clear
7:15 AM 55.8 °F 55.9 °F 100% 30.18 in 7.0 mi Calm Calm - N/A   Clear
7:35 AM 55.8 °F 55.9 °F 100% 30.19 in 10.0 mi Calm Calm - N/A   Clear
7:55 AM 55.6 °F 55.6 °F 100% 30.18 in 5.0 mi Calm Calm - N/A   Clear
8:15 AM 56.8 °F 57.0 °F 100% 30.18 in 10.0 mi South 3.5 mph - N/A   Clear
8:35 AM 58.6 °F 58.6 °F 100% 30.19 in 10.0 mi South 3.5 mph - N/A   Clear
8:55 AM 60.4 °F 59.4 °F 96% 30.18 in 10.0 mi Calm Calm - N/A   Clear
9:15 AM 62.8 °F 60.4 °F 92% 30.19 in 10.0 mi South 3.5 mph - N/A   Clear
9:35 AM 64.6 °F 60.8 °F 88% 30.19 in 10.0 mi South 3.5 mph - N/A   Clear
9:55 AM 66.6 °F 61.3 °F 83% 30.20 in 10.0 mi South 5.8 mph - N/A   Clear
10:15 AM 68.4 °F 61.5 °F 79% 30.20 in 10.0 mi SSW 3.5 mph - N/A   Clear
10:35 AM 70.0 °F 61.7 °F 75% 30.20 in 10.0 mi SSW 4.6 mph - N/A   Clear
10:55 AM 71.4 °F 61.3 °F 70% 30.20 in 10.0 mi South 6.9 mph - N/A   Clear
11:15 AM 72.7 °F 60.6 °F 66% 30.19 in 10.0 mi SSW 5.8 mph - N/A   Clear
11:35 AM 73.2 °F 61.3 °F 66% 30.19 in 10.0 mi SW 5.8 mph - N/A   Clear
11:55 AM 74.5 °F 62.4 °F 66% 30.18 in 10.0 mi South 8.1 mph - N/A   Clear
12:15 PM 74.8 °F 62.4 °F 65% 30.17 in 10.0 mi South 8.1 mph - N/A   Clear
12:35 PM 75.9 °F 62.8 °F 64% 30.16 in 10.0 mi South 5.8 mph - N/A   Scattered Clouds
12:55 PM 75.7 °F 62.4 °F 63% 30.15 in 10.0 mi SW 5.8 mph - N/A   Scattered Clouds
1:35 PM 76.5 °F 61.7 °F 60% 30.14 in 10.0 mi SW 4.6 mph - N/A   Mostly Cloudy
1:55 PM 75.4 °F 61.9 °F 63% 30.14 in 10.0 mi SSW 4.6 mph - N/A   Mostly Cloudy
2:15 PM 76.3 °F 61.5 °F 60% 30.14 in 10.0 mi SW 4.6 mph - N/A   Mostly Cloudy
2:35 PM 76.6 °F 61.0 °F 58% 30.13 in 10.0 mi SW 4.6 mph - N/A   Mostly Cloudy
2:55 PM 76.8 °F 60.8 °F 58% 30.13 in 10.0 mi SSW 4.6 mph - N/A   Mostly Cloudy
3:15 PM 76.8 °F 60.6 °F 57% 30.12 in 10.0 mi South 3.5 mph - N/A   Scattered Clouds
3:35 PM 77.2 °F 60.8 °F 57% 30.13 in 10.0 mi SW 4.6 mph - N/A   Scattered Clouds
3:55 PM 76.5 °F 60.1 °F 57% 30.12 in 10.0 mi South 3.5 mph - N/A   Scattered Clouds
4:15 PM 76.3 °F 60.4 °F 58% 30.12 in 10.0 mi Calm Calm - N/A   Scattered Clouds
4:35 PM 74.7 °F 60.8 °F 62% 30.12 in 10.0 mi Calm Calm - N/A   Clear
4:55 PM 74.1 °F 61.0 °F 63% 30.13 in 10.0 mi Calm Calm - N/A   Clear
5:15 PM 72.9 °F 61.2 °F 67% 30.12 in 10.0 mi Calm Calm - N/A   Clear
5:35 PM 70.7 °F 61.3 °F 72% 30.12 in 10.0 mi Calm Calm - N/A   Clear
5:55 PM 69.1 °F 61.3 °F 76% 30.12 in 10.0 mi Calm Calm - N/A   Clear
6:15 PM 67.8 °F 61.0 °F 79% 30.11 in 10.0 mi Calm Calm - N/A   Clear
6:35 PM 65.3 °F 60.8 °F 85% 30.12 in 10.0 mi Calm Calm - N/A   Clear
7:15 PM 67.3 °F 61.2 °F 81% 30.11 in 10.0 mi Calm Calm - N/A   Clear
7:35 PM 65.1 °F 60.8 °F 86% 30.10 in 10.0 mi SSE 3.5 mph - N/A   Clear
7:55 PM 66.2 °F 61.0 °F 83% 30.10 in 10.0 mi SSE 3.5 mph - N/A   Clear
8:15 PM 64.6 °F 60.8 °F 88% 30.11 in 10.0 mi SSE 3.5 mph - N/A   Clear
8:35 PM 63.1 °F 60.6 °F 91% 30.11 in 10.0 mi Calm Calm - N/A   Clear
8:55 PM 63.5 °F 60.6 °F 90% 30.11 in 10.0 mi Calm Calm - N/A   Clear
9:15 PM 63.0 °F 60.4 °F 91% 30.10 in 10.0 mi Calm Calm - N/A   Clear
9:35 PM 64.0 °F 60.6 °F 89% 30.09 in 10.0 mi Calm Calm - N/A   Clear
9:55 PM 64.8 °F 60.8 °F 87% 30.11 in 10.0 mi Calm Calm - N/A   Clear
10:15 PM 64.0 °F 60.8 °F 89% 30.11 in 10.0 mi South 3.5 mph - N/A   Scattered Clouds
10:35 PM 63.9 °F 60.6 °F 89% 30.12 in 10.0 mi South 3.5 mph - N/A   Mostly Cloudy
10:55 PM 63.5 °F 60.3 °F 89% 30.12 in 10.0 mi Calm Calm - N/A   Overcast
11:15 PM 62.6 °F 60.1 °F 91% 30.13 in 10.0 mi South 3.5 mph - N/A   Overcast
11:35 PM 62.1 °F 59.9 °F 93% 30.13 in 10.0 mi South 4.6 mph - N/A   Overcast
11:55 PM 61.9 °F 59.9 °F 93% 30.13 in 10.0 mi South 5.8 mph - N/A   Mostly Cloudy